MKJP/KIN METAR and TAF weather

Enter ICAO airport designator
Station Type Date Time Source
MKJP METAR 2019/12/07 15:00 UTC NOAA

MKJP 071500Z 25005KT 9999 FEW020 FEW024CB 31/27 Q1017


Station Type Date Time Source
MKJP Decoded METAR 2019/12/07 15:00 UTC NOAA

Kingston / Norman Manley, Jamaica (MKJP) 17-56N 076-47W 14M
Dec 07, 2019 - 10:00 AM EST / 2019.12.07 1500 UTC
Wind: from the WSW (250 degrees) at 6 MPH (5 KT):0
Visibility: greater than 7 mile(s):0
Sky conditions: mostly clear
Weather: Cumulonimbus clouds observed
Temperature: 87 F (31 C)
Heat index: 102.4 F (39.1 C):1
Dew Point: 80 F (27 C)
Relative Humidity: 79%
Pressure (altimeter): 30.03 in. Hg (1017 hPa)
ob: MKJP 071500Z 25005KT 9999 FEW020 FEW024CB 31/27 Q1017
cycle: 15

Station Type Date Time Source
MKJP TAF 2019/12/07 12:24 UTC NOAA

TAF MKJP 071115Z 0712/0812 32008KT 9999 FEW022
BECMG 0715/0717 15008KT
TEMPO 0718/0723 SHRA SCT018 SCT034
BECMG 0802/0804 35005KT

Example: see airport list